EGNV Airport Information

Runway Information
Runway 05 Length 7516 ft width 148 ft
Elevation 115 ft Threshold ft Heading 48
Runway 23 Length 7516 ft Width 148 ft
Elevation 116 ft Threshold ft Heading 228
Airport Frequencies
Type ATIS Name ATIS Frequency 132.375 MHZ
Type RADAR Name Durham Rad Frequency 118.85 MHZ
Type TWR Name Durham Tow Frequency 119.8 MHZ
Airport Navaids
Airport Weather Information & NOTAM
ADDS - METARS form results

(1334 UTC 26 June 2022)
Data provider http://aviationweather.gov/metar/data/
 
METAR text: EGNV 261320Z 17019KT 9999 FEW030 19/06 Q1006
Conditions at: EGNV (TEES-SIDE , GB) observed 1320 UTC 26 June 2022
Temperature: 19.0°C (66°F)
Dewpoint: 6.0°C (43°F) [RH = 43%]
Pressure (altimeter): 29.70 inches Hg (1006.0 mb)
Winds: from the S (170 degrees) at 22 MPH (19 knots; 9.8 m/s)
Visibility: 6 or more miles (10+ km)
Ceiling: at least 12,000 feet AGL
Clouds: few clouds at 3000 feet AGL
Weather: no significant weather observed at this time

METAR text: EGNV 261250Z 19021KT 9999 FEW030 19/05 Q1006
Conditions at: EGNV (TEES-SIDE , GB) observed 1250 UTC 26 June 2022
Temperature: 19.0°C (66°F)
Dewpoint: 5.0°C (41°F) [RH = 40%]
Pressure (altimeter): 29.70 inches Hg (1006.0 mb)
Winds: from the S (190 degrees) at 24 MPH (21 knots; 10.8 m/s)
Visibility: 6 or more miles (10+ km)
Ceiling: at least 12,000 feet AGL
Clouds: few clouds at 3000 feet AGL
Weather: no significant weather observed at this time

Forecast for: EGNV (TEES-SIDE , GB)
Text: TAF EGNV 261058Z 2612/2621 17018G28KT 9999 SCT035
Forecast period: 1200 to 1800 UTC 26 June 2022
Forecast type: FROM: standard forecast or significant change
Winds: from the S (170 degrees) at 21 MPH (18 knots; 9.3 m/s)
gusting to 32 MPH (28 knots; 14.4 m/s)
Visibility: 6 or more miles (10+ km)
Ceiling: at least 12,000 feet AGL
Clouds: scattered clouds at 3500 feet AGL
Weather: no significant weather forecast for this period
Text: BECMG 2618/2621 18008KT
Forecast period: 1800 to 2100 UTC 26 June 2022
Forecast type: BECOMING: Conditions expected to become as follows by 2100 UTC 26 June 2022
Winds: from the S (180 degrees) at 9 MPH (8 knots; 4.1 m/s)
Visibility: 6 or more miles (10+ km)
Ceiling: at least 12,000 feet AGL
Clouds: scattered clouds at 3500 feet AGL
Weather: no significant weather forecast for this period